FL89 weather

CLOSED Triple M Airport
Vero Beach, Florida, United States

Public forecast

Using degrees Fahrenheit for public forecast. Weather courtesy of forecast.io.

Closest aviation weather report (METAR) to Triple M Airport

Closest report is St Lucie County International Airport, 5.2 nm (9.6 km) SE. Retrieved 2019/10/14 01:53 UTC (1 hour ago):

KFPR 140153Z AUTO 12008KT 10SM CLR 26/20 A3004 RMK AO2 SLP172 T02560200

Closest aviation forecast (TAF) to Triple M Airport

Closest forecast is St Lucie County International Airport, 5.2 nm (9.6 km) SE. Retrieved 2019-10-14 00:36 UTC (2 hours ago):

TAF KFPR 132335Z 1400/1424 VRB03KT P6SM FEW035 TEMPO 1400/1402 SCT035 BKN070 FM141500 08009KT P6SM FEW040